Airfield :
LOGIN :

Register | Disclaimer

   EN    FR    IT 

 










Legend :    VFR   Marginal VFR   IFR   Intensive IFR   Very Intensive IFR
Visi :
Ceiling :
>= 8 km
>= 3000ft
5 to 8 km
1000 to 3000 ft
1500m to 5 km
500 to 1000 ft
800 to 1500m
200 to 500 ft
< 800m
< 200 ft
Symbols :   Thunderstorms  Fog  Heavy snow  Heavy precipitations  Wind > 20 kt
SIGMETs :     Misc.  Thunderstorms  Icing  Turbulence  Mountain Waves  Volcanic Ashes







- Airport Elevation : 404 ft
- IATA code : WRO


EPWR - Wroclaw

CURRENT METAR :
  • 210000Z 08007KT 040V110 7000 -SN BKN009 BKN018 M01/M01 Q1019

EXPIRED METARs :
  • 202330Z 08007KT 6000 -SN BKN008 BKN020 M01/M01 Q1018 RESN
  • 202300Z 08008KT 3000 SN BKN007 M01/M01 Q1018
  • 202230Z 07006KT 030V100 2500 SN BKN007 M00/M01 Q1018 RESN
  • 202200Z 08007KT 1500 +SN BKN007 M00/M01 Q1018
  • 202130Z 08007KT 1900 SN BKN009 00/M01 Q1018

TAF TAF EPWR
Valid from the 21 at 00:00 until the 22 at 00:00 UTC


202330Z 2100/2124 10008KT 6000 BKN010
TEMPO 2100/2108 2500 -SN BR BKN004
PROB40
TEMPO 2100/2101 1400 SN
TEMPO 2110/2124 BKN016
No reported NOTAMs for that airfield.



MET'MAP, your aeronautical weather chart ! - Copyright ORBIFLY December 2007 - Disclaimer

ORBIFLY MET'MAP TEAM :

Programming & Development : Alexandra Zaïnal
Concept & Development : Baudouin d'Aumeries
Co-Development & Prog : Marc-Olivier Méhu
Technical & hardware support : Manuel Goepfert

Contact : metmap@orbifly.com




SOURCES & CREDITS :

   NOAA